Time;durP1;ratioP1;P1;durP2;ratioP2;P2;SDS_P1;SDS_P2;PMS_P1;PMS_P2;Temp;Humidity;BMP_temperature;BMP_pressure;BME280_temperature;BME280_humidity;BME280_pressure;Samples;Min_cycle;Max_cycle;Signal;HPM_P1;HPM_P2
2023/11/13 00:00:35;;;;;;;62.05;24.38;;;;;;;2.46;100.00;100816.91;4992852;28;20127;-79
2023/11/13 00:03:00;;;;;;;59.00;22.83;;;;;;;2.46;100.00;100814.28;4992778;28;20117;-79
2023/11/13 00:05:25;;;;;;;58.75;22.80;;;;;;;2.49;100.00;100805.34;4993726;28;20114;-79
2023/11/13 00:07:55;;;;;;;73.25;24.70;;;;;;;2.50;100.00;100804.44;4994350;28;20132;-79
2023/11/13 00:10:20;;;;;;;72.05;25.73;;;;;;;2.53;100.00;100787.66;4993520;28;20117;-79
2023/11/13 00:12:45;;;;;;;70.35;25.77;;;;;;;2.52;100.00;100784.16;4993164;28;20433;-78
2023/11/13 00:15:11;;;;;;;68.60;25.35;;;;;;;2.53;100.00;100795.53;4993840;28;20038;-79
2023/11/13 00:17:37;;;;;;;61.05;23.90;;;;;;;2.51;100.00;100795.63;4994150;28;20493;-80
2023/11/13 00:20:05;;;;;;;63.10;23.83;;;;;;;2.50;100.00;100787.84;4992592;28;20038;-79
2023/11/13 00:22:30;;;;;;;56.08;23.30;;;;;;;2.47;100.00;100799.34;4992502;28;20026;-79
2023/11/13 00:24:58;;;;;;;54.47;22.50;;;;;;;2.44;100.00;100800.38;4994008;28;20027;-79
2023/11/13 00:27:23;;;;;;;55.03;22.98;;;;;;;2.43;100.00;100797.84;4993621;28;20068;-80
2023/11/13 00:29:49;;;;;;;51.53;22.20;;;;;;;2.39;100.00;100784.03;4993822;28;20030;-79
2023/11/13 00:32:14;;;;;;;52.60;22.80;;;;;;;2.32;100.00;100773.97;4993806;28;20045;-79
2023/11/13 00:34:40;;;;;;;51.08;22.65;;;;;;;2.27;100.00;100777.72;4992448;28;20034;-79
2023/11/13 00:37:05;;;;;;;45.30;20.60;;;;;;;2.19;100.00;100769.41;4995726;28;20052;-79
2023/11/13 00:39:32;;;;;;;51.28;21.38;;;;;;;2.15;100.00;100764.41;4980136;28;20035;-79
2023/11/13 00:41:57;;;;;;;48.95;21.73;;;;;;;2.09;100.00;100761.22;4997216;28;20036;-79
2023/11/13 00:44:23;;;;;;;54.78;22.55;;;;;;;2.06;100.00;100758.78;4996013;28;20026;-79
2023/11/13 00:46:49;;;;;;;46.70;20.98;;;;;;;2.04;100.00;100747.50;4997768;28;20030;-79
2023/11/13 00:49:14;;;;;;;50.28;22.35;;;;;;;2.05;100.00;100757.06;4995851;28;20034;-79
2023/11/13 00:51:40;;;;;;;47.95;22.58;;;;;;;2.05;100.00;100754.44;4996930;28;20038;-79
2023/11/13 00:54:05;;;;;;;42.53;20.00;;;;;;;2.05;100.00;100736.06;4995936;28;20053;-79
2023/11/13 00:56:31;;;;;;;48.42;22.77;;;;;;;2.08;100.00;100749.03;4979749;28;20455;-79
2023/11/13 00:58:57;;;;;;;49.42;21.92;;;;;;;2.08;100.00;100746.41;4996980;28;20034;-79
2023/11/13 01:01:23;;;;;;;54.58;21.58;;;;;;;2.13;100.00;100742.66;4996654;28;20371;-79
2023/11/13 01:03:49;;;;;;;50.30;22.23;;;;;;;2.15;100.00;100736.41;4996754;28;20065;-79
2023/11/13 01:06:16;;;;;;;53.75;22.20;;;;;;;2.20;100.00;100741.41;4995583;28;20082;-79
2023/11/13 01:08:41;;;;;;;44.95;19.65;;;;;;;2.23;100.00;100741.22;4996888;28;20121;-80
2023/11/13 01:11:06;;;;;;;43.90;20.67;;;;;;;2.26;100.00;100744.50;4995482;28;20120;-80
2023/11/13 01:13:32;;;;;;;53.88;21.98;;;;;;;2.31;100.00;100738.16;4996174;28;20027;-80
2023/11/13 01:15:57;;;;;;;53.13;21.67;;;;;;;2.34;100.00;100751.94;4998584;28;20048;-79
2023/11/13 01:18:23;;;;;;;45.58;22.45;;;;;;;2.38;100.00;100752.63;5000018;28;20233;-78
2023/11/13 01:20:49;;;;;;;49.00;22.05;;;;;;;2.39;100.00;100752.53;5001072;28;20042;-79
2023/11/13 01:23:14;;;;;;;43.95;21.92;;;;;;;2.43;100.00;100756.69;5002267;28;20134;-79
2023/11/13 01:25:40;;;;;;;54.38;23.25;;;;;;;2.51;100.00;100758.00;5001688;28;20155;-80
2023/11/13 01:28:06;;;;;;;47.40;22.92;;;;;;;2.56;100.00;100755.97;5000049;28;20038;-80
2023/11/13 01:30:31;;;;;;;46.35;23.20;;;;;;;2.61;100.00;100749.50;4996841;28;20026;-78
2023/11/13 01:32:58;;;;;;;45.50;21.10;;;;;;;2.69;100.00;100746.41;4996215;28;20026;-80
2023/11/13 01:35:24;;;;;;;46.17;21.67;;;;;;;2.74;100.00;100749.63;4994916;28;20041;-81
2023/11/13 01:37:50;;;;;;;46.75;22.33;;;;;;;2.82;100.00;100757.03;4996344;28;20034;-79
2023/11/13 01:40:15;;;;;;;45.50;22.50;;;;;;;2.87;100.00;100747.13;4996345;28;20038;-85
2023/11/13 01:42:40;;;;;;;45.58;21.52;;;;;;;2.91;100.00;100739.88;4994951;28;20442;-79
2023/11/13 01:45:06;;;;;;;49.42;21.95;;;;;;;2.97;100.00;100742.13;4996233;28;20034;-79
2023/11/13 01:47:32;;;;;;;42.88;21.85;;;;;;;3.01;100.00;100746.28;4995721;28;20034;-80
2023/11/13 01:49:58;;;;;;;44.33;21.83;;;;;;;3.05;100.00;100739.91;4995803;28;20085;-79
2023/11/13 01:52:26;;;;;;;60.10;24.13;;;;;;;3.10;100.00;100735.19;4994719;28;20042;-77
2023/11/13 01:54:51;;;;;;;46.45;22.02;;;;;;;3.15;100.00;100716.50;4995790;28;20031;-78
2023/11/13 01:57:17;;;;;;;54.10;23.77;;;;;;;3.18;100.00;100709.28;4996292;28;20131;-80
2023/11/13 01:59:44;;;;;;;51.90;23.60;;;;;;;3.25;100.00;100714.16;4995446;28;20034;-79
2023/11/13 02:02:09;;;;;;;46.03;22.77;;;;;;;3.27;100.00;100709.66;4995887;28;20061;-79
2023/11/13 02:04:36;;;;;;;46.05;22.27;;;;;;;3.29;100.00;100707.78;4994630;28;20536;-79
2023/11/13 02:07:01;;;;;;;47.20;22.13;;;;;;;3.29;100.00;100706.00;4994586;28;20046;-79
2023/11/13 02:09:27;;;;;;;56.28;26.15;;;;;;;3.35;100.00;100707.41;4996299;28;20360;-79
2023/11/13 02:11:53;;;;;;;48.85;23.85;;;;;;;3.41;100.00;100712.28;4996017;28;20038;-78
2023/11/13 02:14:18;;;;;;;50.38;24.75;;;;;;;3.46;100.00;100704.09;4994505;28;20061;-80
2023/11/13 02:16:44;;;;;;;54.08;24.13;;;;;;;3.50;100.00;100702.97;4995641;28;20113;-80
2023/11/13 02:19:15;;;;;;;47.80;23.98;;;;;;;3.56;100.00;100693.84;4995608;28;20364;-80
2023/11/13 02:21:40;;;;;;;51.72;24.45;;;;;;;3.61;100.00;100689.94;4996286;28;20104;-79
2023/11/13 02:24:07;;;;;;;51.80;24.17;;;;;;;3.65;100.00;100673.03;4995557;28;20117;-79
2023/11/13 02:26:32;;;;;;;47.75;24.48;;;;;;;3.69;100.00;100665.81;4995879;28;20058;-79
2023/11/13 02:28:58;;;;;;;51.58;25.25;;;;;;;3.73;100.00;100653.28;4995547;28;20038;-79
2023/11/13 02:31:24;;;;;;;50.83;23.90;;;;;;;3.79;100.00;100644.97;4995784;28;20026;-80
2023/11/13 02:33:49;;;;;;;53.08;24.05;;;;;;;3.82;100.00;100648.28;4996276;28;20031;-78
2023/11/13 02:36:14;;;;;;;56.65;24.17;;;;;;;3.85;100.00;100648.06;4995107;28;20129;-79
2023/11/13 02:38:40;;;;;;;47.53;24.38;;;;;;;3.91;100.00;100651.25;4995513;28;20058;-78
2023/11/13 02:41:07;;;;;;;50.13;24.27;;;;;;;3.93;100.00;100658.09;4994476;28;20077;-80
2023/11/13 02:43:32;;;;;;;47.65;23.73;;;;;;;3.98;100.00;100663.88;4997568;28;20077;-79
2023/11/13 02:45:58;;;;;;;46.97;24.02;;;;;;;4.00;100.00;100674.31;4997321;28;20426;-82
2023/11/13 02:48:24;;;;;;;52.28;23.85;;;;;;;4.03;100.00;100677.63;4994982;28;20030;-80
2023/11/13 02:50:49;;;;;;;51.63;22.17;;;;;;;4.07;100.00;100680.88;4994584;28;20057;-79
2023/11/13 02:53:14;;;;;;;47.72;22.95;;;;;;;4.11;100.00;100699.97;4978263;28;20120;-81
2023/11/13 02:55:40;;;;;;;49.92;24.33;;;;;;;4.12;100.00;100688.47;4995479;28;20085;-79
2023/11/13 02:58:05;;;;;;;54.08;23.88;;;;;;;4.14;100.00;100694.50;4993820;28;20041;-79
2023/11/13 03:00:33;;;;;;;56.60;23.80;;;;;;;4.15;100.00;100698.78;4993274;28;20550;-79
2023/11/13 03:02:59;;;;;;;47.17;23.05;;;;;;;4.17;100.00;100699.56;4994837;28;20035;-78
2023/11/13 03:05:24;;;;;;;54.22;23.15;;;;;;;4.18;100.00;100704.72;4993118;28;20483;-79
2023/11/13 03:07:50;;;;;;;45.88;22.60;;;;;;;4.20;100.00;100716.00;4995081;28;20032;-78
2023/11/13 03:10:15;;;;;;;50.63;23.23;;;;;;;4.22;100.00;100708.00;4994578;28;20042;-79
2023/11/13 03:12:41;;;;;;;43.92;22.17;;;;;;;4.23;100.00;100705.25;4994472;28;20467;-78
2023/11/13 03:15:09;;;;;;;48.75;22.95;;;;;;;4.27;100.00;100699.78;4993400;28;20034;-80
2023/11/13 03:17:34;;;;;;;45.53;21.95;;;;;;;4.27;100.00;100692.75;4994626;28;20033;-79
2023/11/13 03:20:02;;;;;;;47.53;22.67;;;;;;;4.30;100.00;100683.78;4993428;28;20375;-81
2023/11/13 03:22:27;;;;;;;45.33;21.98;;;;;;;4.31;100.00;100681.03;4993269;28;20038;-79
2023/11/13 03:24:53;;;;;;;47.35;22.25;;;;;;;4.32;100.00;100679.25;4994303;28;20459;-79
2023/11/13 03:27:18;;;;;;;37.50;21.42;;;;;;;4.34;100.00;100680.81;4994522;28;20430;-80
2023/11/13 03:29:43;;;;;;;40.35;21.65;;;;;;;4.36;100.00;100680.72;4994172;28;20034;-78
2023/11/13 03:32:09;;;;;;;43.20;22.15;;;;;;;4.37;100.00;100688.56;4992801;28;20033;-78
2023/11/13 03:34:34;;;;;;;39.42;20.80;;;;;;;4.39;100.00;100688.44;4994402;28;20502;-78
2023/11/13 03:37:00;;;;;;;47.00;21.27;;;;;;;4.41;100.00;100689.19;4993196;28;20031;-80
2023/11/13 03:39:26;;;;;;;46.13;21.48;;;;;;;4.41;100.00;100687.38;4993034;28;20077;-79
2023/11/13 03:41:51;;;;;;;41.05;21.88;;;;;;;4.43;100.00;100676.72;4993741;28;20125;-79
2023/11/13 03:44:17;;;;;;;44.75;21.80;;;;;;;4.46;100.00;100673.06;4994197;28;20038;-80
2023/11/13 03:46:43;;;;;;;43.22;21.27;;;;;;;4.46;100.00;100670.44;4994411;28;20022;-78
2023/11/13 03:49:08;;;;;;;42.22;21.30;;;;;;;4.48;100.00;100655.34;4994131;28;20557;-79
2023/11/13 03:51:34;;;;;;;47.67;22.30;;;;;;;4.50;100.00;100653.47;4993294;28;20046;-79
2023/11/13 03:54:00;;;;;;;45.63;22.27;;;;;;;4.52;100.00;100647.16;4994102;28;20038;-78
2023/11/13 03:56:25;;;;;;;44.50;21.08;;;;;;;4.53;100.00;100635.66;4993748;28;20030;-78
2023/11/13 03:58:52;;;;;;;45.55;21.88;;;;;;;4.55;100.00;100625.00;4994608;28;20038;-80
2023/11/13 04:01:19;;;;;;;41.13;21.77;;;;;;;4.55;100.00;100615.31;4994000;28;20056;-79
2023/11/13 04:03:45;;;;;;;42.50;22.35;;;;;;;4.57;100.00;100596.78;4994052;28;20060;-79
2023/11/13 04:06:11;;;;;;;42.30;21.50;;;;;;;4.59;100.00;100589.59;4994855;28;20543;-80
2023/11/13 04:08:37;;;;;;;50.47;22.85;;;;;;;4.59;100.00;100584.31;4993919;28;20031;-78
2023/11/13 04:11:05;;;;;;;50.10;22.92;;;;;;;4.62;100.00;100578.84;4994753;28;20125;-79
2023/11/13 04:13:34;;;;;;;46.13;23.17;;;;;;;4.64;100.00;100563.75;4997040;28;20030;-79
2023/11/13 04:16:02;;;;;;;45.88;22.58;;;;;;;4.65;100.00;100562.81;4997403;28;20371;-80
2023/11/13 04:18:34;;;;;;;47.22;23.90;;;;;;;4.66;100.00;100561.00;4998200;28;20034;-79
2023/11/13 04:20:59;;;;;;;47.30;23.77;;;;;;;4.66;100.00;100548.69;4997933;28;20030;-80
2023/11/13 04:23:26;;;;;;;49.45;22.88;;;;;;;4.69;100.00;100552.91;4997460;28;20038;-78
2023/11/13 04:25:51;;;;;;;56.20;24.33;;;;;;;4.71;100.00;100553.63;4997557;28;20455;-80
2023/11/13 04:28:19;;;;;;;50.35;24.15;;;;;;;4.73;100.00;100556.97;4997625;28;20070;-79
2023/11/13 04:30:45;;;;;;;59.75;24.92;;;;;;;4.75;100.00;100565.66;4997530;28;20129;-79
2023/11/13 04:33:10;;;;;;;55.72;24.85;;;;;;;4.77;100.00;100567.19;4996974;28;20438;-79
2023/11/13 04:35:35;;;;;;;58.15;24.67;;;;;;;4.79;100.00;100555.72;4996184;28;20467;-80
2023/11/13 04:38:01;;;;;;;52.22;24.60;;;;;;;4.82;100.00;100555.50;4996943;28;20062;-80
2023/11/13 04:40:26;;;;;;;62.17;26.13;;;;;;;4.83;100.00;100552.75;4996215;28;20034;-78
2023/11/13 04:42:52;;;;;;;69.78;25.75;;;;;;;4.85;100.00;100542.97;4997721;28;20033;-79
2023/11/13 04:45:18;;;;;;;58.20;24.92;;;;;;;4.88;100.00;100547.16;4980033;28;20080;-79
2023/11/13 04:47:43;;;;;;;56.85;26.63;;;;;;;4.90;100.00;100546.09;4995746;28;20176;-79
2023/11/13 04:50:09;;;;;;;51.00;24.05;;;;;;;4.92;100.00;100538.06;4997550;28;20066;-80
2023/11/13 04:52:34;;;;;;;58.40;25.70;;;;;;;4.93;100.00;100537.97;4997211;28;20066;-79
2023/11/13 04:54:59;;;;;;;58.30;24.42;;;;;;;4.97;100.00;100532.47;4995653;28;20038;-80
2023/11/13 04:57:25;;;;;;;65.30;25.58;;;;;;;4.99;100.00;100536.69;4996641;28;20038;-79
2023/11/13 04:59:50;;;;;;;67.40;26.52;;;;;;;5.01;100.00;100541.84;4996821;28;20062;-79
2023/11/13 05:02:16;;;;;;;64.00;26.13;;;;;;;5.04;100.00;100544.25;4996776;28;20458;-80
2023/11/13 05:04:45;;;;;;;74.25;26.80;;;;;;;5.06;100.00;100540.56;4996306;28;20568;-87
2023/11/13 05:07:10;;;;;;;74.45;26.10;;;;;;;5.08;100.00;100537.81;4996691;28;20467;-79
2023/11/13 05:09:36;;;;;;;74.50;26.63;;;;;;;5.10;100.00;100531.47;4995407;28;20050;-79
2023/11/13 05:12:01;;;;;;;81.10;28.35;;;;;;;5.11;100.00;100533.16;4979041;28;20094;-79
2023/11/13 05:14:26;;;;;;;77.88;27.70;;;;;;;5.15;100.00;100527.66;4996882;28;20117;-80
2023/11/13 05:16:56;;;;;;;75.25;27.63;;;;;;;5.17;100.00;100531.03;4996461;28;20038;-78
2023/11/13 05:19:21;;;;;;;69.80;26.52;;;;;;;5.18;100.00;100524.78;4996464;28;20414;-79
2023/11/13 05:21:47;;;;;;;80.97;26.85;;;;;;;5.19;100.00;100518.56;4996087;28;20061;-79
2023/11/13 05:24:12;;;;;;;70.05;26.08;;;;;;;5.21;100.00;100509.59;4996404;28;20030;-78
2023/11/13 05:26:38;;;;;;;93.10;29.83;;;;;;;5.24;100.00;100521.69;4994859;28;20030;-79
2023/11/13 05:29:03;;;;;;;90.35;27.52;;;;;;;5.25;100.00;100507.56;4996214;28;20037;-78
2023/11/13 05:31:29;;;;;;;87.43;28.55;;;;;;;5.29;100.00;100504.59;4995985;28;20066;-79
2023/11/13 05:33:54;;;;;;;110.57;28.90;;;;;;;5.32;100.00;100507.97;4996281;28;20042;-80
2023/11/13 05:36:20;;;;;;;110.50;27.30;;;;;;;5.34;100.00;100503.41;4996198;28;20038;-78
2023/11/13 05:38:46;;;;;;;93.78;29.02;;;;;;;5.38;100.00;100495.16;4994840;28;20438;-79
2023/11/13 05:41:11;;;;;;;100.65;28.02;;;;;;;5.39;100.00;100493.34;4996223;28;20041;-79
2023/11/13 05:43:36;;;;;;;95.18;27.88;;;;;;;5.42;100.00;100482.56;4996308;28;20030;-81
2023/11/13 05:46:04;;;;;;;102.35;28.92;;;;;;;5.44;100.00;100483.31;4995722;28;20032;-79
2023/11/13 05:48:30;;;;;;;104.32;28.10;;;;;;;5.46;100.00;100476.09;4996099;28;20042;-79
2023/11/13 05:50:55;;;;;;;95.22;27.95;;;;;;;5.48;100.00;100469.78;4978405;28;20038;-80
2023/11/13 05:53:21;;;;;;;107.72;27.20;;;;;;;5.49;100.00;100470.59;4996627;28;20039;-80
2023/11/13 05:55:47;;;;;;;90.97;26.73;;;;;;;5.53;100.00;100476.50;4995828;28;20030;-79
2023/11/13 05:58:12;;;;;;;93.00;27.52;;;;;;;5.54;100.00;100464.97;4995898;28;20068;-78
2023/11/13 06:00:38;;;;;;;121.38;29.02;;;;;;;5.57;100.00;100467.38;4995856;28;20436;-79
2023/11/13 06:03:03;;;;;;;142.75;29.75;;;;;;;5.57;100.00;100462.09;4994409;28;20031;-79
2023/11/13 06:05:29;;;;;;;114.32;27.42;;;;;;;5.59;100.00;100458.41;4995317;28;20461;-78
2023/11/13 06:07:54;;;;;;;140.77;28.63;;;;;;;5.61;100.00;100453.88;4996165;28;20117;-77
2023/11/13 06:10:20;;;;;;;128.63;29.52;;;;;;;5.65;100.00;100468.47;4995193;28;20030;-75
2023/11/13 06:12:46;;;;;;;156.48;29.33;;;;;;;5.65;100.00;100457.94;4994362;28;20045;-76
2023/11/13 06:15:14;;;;;;;101.28;28.65;;;;;;;5.70;100.00;100457.56;4994058;28;20043;-78
2023/11/13 06:17:41;;;;;;;108.70;27.48;;;;;;;5.73;100.00;100448.59;4995433;28;20037;-77
2023/11/13 06:20:06;;;;;;;134.40;28.85;;;;;;;5.76;100.00;100443.94;4994994;28;20042;-77
2023/11/13 06:22:32;;;;;;;111.78;28.23;;;;;;;5.79;100.00;100437.56;4977915;28;20486;-76
2023/11/13 06:24:59;;;;;;;125.45;28.23;;;;;;;5.81;100.00;100435.66;4995555;28;20482;-77
2023/11/13 06:27:24;;;;;;;102.43;28.20;;;;;;;5.83;100.00;100416.06;4995077;28;20036;-78
2023/11/13 06:29:50;;;;;;;104.13;26.73;;;;;;;5.87;100.00;100423.75;4995627;28;20035;-79
2023/11/13 06:32:16;;;;;;;97.60;26.10;;;;;;;5.92;100.00;100432.19;4995881;28;20034;-78
2023/11/13 06:34:41;;;;;;;98.80;26.38;;;;;;;5.94;100.00;100427.59;4995499;28;20037;-80
2023/11/13 06:37:06;;;;;;;109.57;26.73;;;;;;;5.97;100.00;100430.91;4996621;28;20143;-80
2023/11/13 06:39:32;;;;;;;116.40;27.10;;;;;;;5.99;100.00;100431.59;4996465;28;20035;-80
2023/11/13 06:41:57;;;;;;;95.30;24.73;;;;;;;6.04;100.00;100433.06;4997573;28;20040;-80
2023/11/13 06:44:23;;;;;;;99.45;24.92;;;;;;;6.05;100.00;100410.97;4996608;28;20034;-80
2023/11/13 06:46:48;;;;;;;91.10;24.92;;;;;;;6.08;100.00;100413.38;4995496;28;20069;-81
2023/11/13 06:49:14;;;;;;;92.57;24.33;;;;;;;6.10;100.00;100407.00;4994156;28;20088;-81
2023/11/13 06:51:39;;;;;;;106.85;24.27;;;;;;;6.14;100.00;100404.97;4994837;28;20038;-81
2023/11/13 06:54:07;;;;;;;80.25;22.45;;;;;;;6.16;100.00;100397.75;4996038;28;20041;-80
2023/11/13 06:56:33;;;;;;;90.28;24.15;;;;;;;6.21;100.00;100400.03;4997007;28;20026;-80
2023/11/13 06:58:59;;;;;;;96.30;25.58;;;;;;;6.24;100.00;100394.50;4995818;28;20031;-80
2023/11/13 07:01:25;;;;;;;107.38;25.10;;;;;;;6.25;100.00;100372.41;4996697;28;20046;-81
2023/11/13 07:03:51;;;;;;;92.60;23.55;;;;;;;6.30;100.00;100376.38;4981218;28;20368;-81
2023/11/13 07:06:17;;;;;;;94.28;24.67;;;;;;;6.34;100.00;100376.94;4979079;28;20064;-81
2023/11/13 07:08:42;;;;;;;103.03;26.27;;;;;;;6.38;100.00;100378.38;4995606;28;20038;-80
2023/11/13 07:11:10;;;;;;;109.82;26.55;;;;;;;6.47;100.00;100375.00;4995270;28;20034;-79
2023/11/13 07:13:38;;;;;;;96.03;26.40;;;;;;;6.51;100.00;100379.09;4995442;28;20081;-80
2023/11/13 07:16:04;;;;;;;105.68;26.02;;;;;;;6.63;100.00;100379.88;4997146;28;20382;-81
2023/11/13 07:18:29;;;;;;;116.05;27.05;;;;;;;6.67;100.00;100373.41;4997585;28;20037;-79
2023/11/13 07:20:54;;;;;;;101.00;27.55;;;;;;;6.73;100.00;100373.84;4998742;28;20193;-81
2023/11/13 07:23:20;;;;;;;107.13;26.83;;;;;;;6.77;100.00;100368.19;4998291;28;20505;-79
2023/11/13 07:25:45;;;;;;;105.72;26.10;;;;;;;6.82;100.00;100366.00;4980073;28;20463;-80
2023/11/13 07:28:15;;;;;;;118.88;28.48;;;;;;;6.87;100.00;100370.91;4995985;28;20033;-80
2023/11/13 07:30:41;;;;;;;111.28;28.00;;;;;;;6.92;100.00;100355.50;4995726;28;20057;-81
2023/11/13 07:33:06;;;;;;;124.95;29.98;;;;;;;6.98;100.00;100349.69;4996047;28;20045;-79
2023/11/13 07:35:32;;;;;;;125.13;27.75;;;;;;;7.04;100.00;100356.28;4999641;28;20089;-80
2023/11/13 07:37:57;;;;;;;111.65;28.52;;;;;;;7.10;100.00;100347.84;4997279;28;20042;-80
2023/11/13 07:40:25;;;;;;;118.80;29.02;;;;;;;7.13;100.00;100336.16;4995485;28;20085;-81
2023/11/13 07:42:51;;;;;;;110.57;27.00;;;;;;;7.18;100.00;100339.25;4996090;28;20038;-80
2023/11/13 07:45:17;;;;;;;112.68;28.27;;;;;;;7.21;100.00;100333.69;4994548;28;20121;-81
2023/11/13 07:47:42;;;;;;;129.18;29.17;;;;;;;7.22;100.00;100333.56;4996851;28;20034;-78
2023/11/13 07:50:12;;;;;;;125.55;29.77;;;;;;;7.26;100.00;100328.88;4998312;28;20037;-81
2023/11/13 07:52:41;;;;;;;115.13;29.23;;;;;;;7.32;100.00;100315.09;4995011;28;20084;-80
2023/11/13 07:55:09;;;;;;;122.35;28.13;;;;;;;7.38;100.00;100305.81;4994882;28;20029;-79
2023/11/13 07:57:35;;;;;;;107.95;27.00;;;;;;;7.43;100.00;100303.59;4993613;28;20038;-80
2023/11/13 08:00:09;;;;;;;115.05;27.67;;;;;;;7.49;100.00;100291.66;4994682;28;20049;-82
2023/11/13 08:02:40;;;;;;;109.95;27.00;;;;;;;7.53;100.00;100285.94;4996049;28;20041;-81
2023/11/13 08:05:10;;;;;;;101.03;28.48;;;;;;;7.58;100.00;100282.91;4996180;28;20104;-81
2023/11/13 08:07:37;;;;;;;98.68;27.70;;;;;;;7.64;100.00;100274.41;4978604;28;20050;-81
2023/11/13 08:10:08;;;;;;;103.38;27.10;;;;;;;7.70;100.00;100267.75;4977323;28;20039;-81
2023/11/13 08:12:34;;;;;;;95.18;26.50;;;;;;;7.78;100.00;100262.66;4980871;28;20031;-78
2023/11/13 08:15:00;;;;;;;98.55;25.27;;;;;;;7.82;100.00;100252.59;4978090;28;20054;-81
2023/11/13 08:17:25;;;;;;;93.53;24.30;;;;;;;7.87;100.00;100232.69;4979142;28;20114;-81
2023/11/13 08:19:51;;;;;;;89.15;23.48;;;;;;;7.90;100.00;100221.81;4981452;28;20042;-82
2023/11/13 08:22:18;;;;;;;88.05;23.92;;;;;;;7.97;100.00;100215.97;4975925;28;20039;-79
2023/11/13 08:24:43;;;;;;;84.90;23.20;;;;;;;8.00;100.00;100210.38;4974759;28;20046;-83
2023/11/13 08:27:15;;;;;;;90.18;23.63;;;;;;;8.04;100.00;100198.56;4972774;28;20468;-81
2023/11/13 08:29:42;;;;;;;98.65;24.77;;;;;;;8.06;100.00;100208.03;4975583;28;20035;-81
2023/11/13 08:32:07;;;;;;;89.60;25.50;;;;;;;8.10;100.00;100205.94;4974717;28;20035;-80
2023/11/13 08:34:33;;;;;;;102.47;26.77;;;;;;;8.14;100.00;100211.81;4989866;28;20535;-81
2023/11/13 08:36:59;;;;;;;92.57;25.52;;;;;;;8.14;100.00;100209.16;4974378;28;20050;-82
2023/11/13 08:39:24;;;;;;;102.38;27.92;;;;;;;8.17;100.00;100206.25;4975516;28;20027;-81
2023/11/13 08:41:55;;;;;;;103.22;27.52;;;;;;;8.17;100.00;100196.47;4974508;28;20089;-81
2023/11/13 08:44:20;;;;;;;105.43;28.13;;;;;;;8.19;100.00;100183.06;4975780;28;20035;-80
2023/11/13 08:46:45;;;;;;;83.93;27.67;;;;;;;8.20;100.00;100168.84;4977155;28;20058;-81
2023/11/13 08:49:14;;;;;;;91.95;27.20;;;;;;;8.21;100.00;100151.97;4977874;28;20062;-81
2023/11/13 08:51:40;;;;;;;100.60;26.67;;;;;;;8.23;100.00;100150.03;4978271;28;20085;-81
2023/11/13 08:54:06;;;;;;;83.40;25.90;;;;;;;8.20;100.00;100145.00;4978264;28;20045;-81
2023/11/13 08:56:31;;;;;;;81.47;22.70;;;;;;;8.22;100.00;100151.81;4978766;28;20126;-81
2023/11/13 08:58:58;;;;;;;80.28;21.25;;;;;;;8.22;100.00;100151.81;4979983;28;20078;-81
2023/11/13 09:01:25;;;;;;;67.72;18.38;;;;;;;8.21;100.00;100141.34;4978026;28;20030;-81
2023/11/13 09:03:54;;;;;;;58.08;16.77;;;;;;;8.20;100.00;100137.06;4978275;28;20046;-81
2023/11/13 09:06:19;;;;;;;64.50;17.52;;;;;;;8.18;100.00;100118.66;5006745;28;20065;-81
2023/11/13 09:08:48;;;;;;;41.72;14.10;;;;;;;8.19;100.00;100122.13;5002111;28;20038;-82
2023/11/13 09:11:17;;;;;;;38.85;12.70;;;;;;;8.19;100.00;100119.47;5001667;28;20132;-83
2023/11/13 09:13:42;;;;;;;34.88;11.88;;;;;;;8.18;100.00;100117.78;5003013;28;20023;-81
2023/11/13 09:16:10;;;;;;;35.33;10.00;;;;;;;8.17;100.00;100095.78;5003283;28;20057;-81
2023/11/13 09:18:35;;;;;;;29.77;9.00;;;;;;;8.17;100.00;100084.34;5000813;28;20108;-82
2023/11/13 09:21:01;;;;;;;22.30;7.57;;;;;;;8.17;100.00;100087.00;4998179;28;20039;-82
2023/11/13 09:23:26;;;;;;;25.27;6.50;;;;;;;8.15;100.00;100071.25;4998268;28;20379;-80
2023/11/13 09:25:52;;;;;;;28.40;6.22;;;;;;;8.15;100.00;100067.72;4997051;28;20112;-80
2023/11/13 09:28:18;;;;;;;23.50;5.63;;;;;;;8.16;100.00;100056.16;4996159;28;20041;-79
2023/11/13 09:30:44;;;;;;;21.35;5.38;;;;;;;8.16;100.00;100053.50;4996312;28;20042;-78
2023/11/13 09:33:10;;;;;;;17.25;5.10;;;;;;;8.10;100.00;100031.06;5011789;28;20446;-81
2023/11/13 09:35:36;;;;;;;21.85;5.03;;;;;;;8.07;100.00;100037.47;4978671;28;20091;-79
2023/11/13 09:38:03;;;;;;;21.73;5.20;;;;;;;8.08;100.00;100041.81;4995915;28;20129;-80
2023/11/13 09:40:34;;;;;;;17.88;5.22;;;;;;;8.05;100.00;100033.31;4995095;28;20422;-79
2023/11/13 09:43:06;;;;;;;14.57;4.80;;;;;;;8.03;100.00;100032.59;4996596;28;20081;-80
2023/11/13 09:45:39;;;;;;;10.68;3.63;;;;;;;7.98;100.00;100029.56;4996128;28;20059;-79
2023/11/13 09:48:06;;;;;;;14.27;3.85;;;;;;;7.94;100.00;100018.41;4996643;28;20037;-79
2023/11/13 09:50:33;;;;;;;14.15;3.30;;;;;;;7.94;100.00;100002.50;4995676;28;20038;-78
2023/11/13 09:53:03;;;;;;;11.20;3.20;;;;;;;7.94;100.00;99997.19;4995880;28;20034;-79
2023/11/13 09:55:29;;;;;;;14.52;3.45;;;;;;;7.94;100.00;99992.75;4995779;28;20026;-80
2023/11/13 09:57:56;;;;;;;7.22;3.00;;;;;;;7.94;100.00;99990.13;4995888;28;20089;-80
2023/11/13 10:00:23;;;;;;;15.00;3.60;;;;;;;7.95;100.00;99985.63;4995320;28;20072;-84
2023/11/13 10:02:51;;;;;;;8.88;3.10;;;;;;;7.95;100.00;99983.81;4994149;28;20041;-82
2023/11/13 10:05:18;;;;;;;11.73;3.30;;;;;;;7.93;100.00;99971.72;4995332;28;20038;-83
2023/11/13 10:07:52;;;;;;;11.63;3.58;;;;;;;7.93;100.00;99969.06;4996383;28;20169;-83
2023/11/13 10:10:23;;;;;;;14.27;3.58;;;;;;;7.92;100.00;99949.66;4994735;28;20042;-79
2023/11/13 10:12:55;;;;;;;9.35;3.65;;;;;;;7.97;100.00;99945.75;4996854;28;20509;-82
2023/11/13 10:15:28;;;;;;;10.73;3.97;;;;;;;8.00;100.00;99937.53;4999649;28;20045;-81
2023/11/13 10:17:58;;;;;;;7.97;3.50;;;;;;;8.05;100.00;99933.47;4996025;28;20034;-81
2023/11/13 10:20:25;;;;;;;11.23;4.20;;;;;;;8.08;100.00;99919.94;4996620;28;20065;-79
2023/11/13 10:22:59;;;;;;;10.40;4.30;;;;;;;8.14;100.00;99923.00;4997274;28;20034;-82
2023/11/13 10:25:27;;;;;;;19.95;5.13;;;;;;;8.18;100.00;99911.09;4996580;28;20023;-82
2023/11/13 10:27:57;;;;;;;9.57;4.60;;;;;;;8.18;100.00;99893.41;4994913;28;20034;-77
2023/11/13 10:30:24;;;;;;;16.98;5.63;;;;;;;8.23;100.00;99874.41;4996538;28;20026;-80
2023/11/13 10:32:50;;;;;;;13.95;5.50;;;;;;;8.25;100.00;99877.72;4995574;28;20081;-84
2023/11/13 10:35:35;;;;;;;18.98;6.47;;;;;;;8.29;100.00;99873.81;4995490;28;20042;-80
2023/11/13 10:38:03;;;;;;;15.32;5.65;;;;;;;8.33;100.00;99879.63;4994707;28;20391;-81
2023/11/13 10:40:29;;;;;;;23.33;7.00;;;;;;;8.35;100.00;99861.78;4995921;28;20033;-82
2023/11/13 10:42:55;;;;;;;15.35;6.72;;;;;;;8.37;100.00;99857.16;4995764;28;20036;-81
2023/11/13 10:45:21;;;;;;;17.27;7.82;;;;;;;8.40;100.00;99835.66;4995659;28;20034;-81
2023/11/13 10:47:49;;;;;;;19.58;8.57;;;;;;;8.45;100.00;99830.78;4995415;28;20062;-82
2023/11/13 10:50:19;;;;;;;17.58;8.98;;;;;;;8.51;100.00;99814.28;4995349;28;20042;-81
2023/11/13 10:52:51;;;;;;;26.63;10.32;;;;;;;8.63;100.00;99807.75;4995170;28;20038;-79
2023/11/13 10:55:19;;;;;;;27.77;11.68;;;;;;;8.69;100.00;99813.44;4995255;28;20034;-80
2023/11/13 10:57:45;;;;;;;35.55;12.35;;;;;;;8.72;100.00;99802.50;4994752;28;20105;-82
2023/11/13 11:00:14;;;;;;;28.48;12.98;;;;;;;8.76;100.00;99786.16;4994919;28;20031;-81
2023/11/13 11:02:49;;;;;;;31.23;14.15;;;;;;;8.85;100.00;99770.31;4995027;28;20053;-83
2023/11/13 11:05:22;;;;;;;30.45;12.73;;;;;;;8.91;100.00;99759.94;4995832;28;20069;-82